sensor_id;sensor_type;location;lat;lon;timestamp;P1;durP1;ratioP1;P2;durP2;ratioP2
781;SDS011;374;52.568;13.402;2023-05-10T00:02:08;10.23;;;6.60;;
781;SDS011;374;52.568;13.402;2023-05-10T00:04:34;7.60;;;6.83;;
781;SDS011;374;52.568;13.402;2023-05-10T00:06:59;8.57;;;7.70;;
781;SDS011;374;52.568;13.402;2023-05-10T00:09:25;8.47;;;7.57;;
781;SDS011;374;52.568;13.402;2023-05-10T00:11:50;7.57;;;6.87;;
781;SDS011;374;52.568;13.402;2023-05-10T00:14:16;8.67;;;7.77;;
781;SDS011;374;52.568;13.402;2023-05-10T00:16:42;9.03;;;6.80;;
781;SDS011;374;52.568;13.402;2023-05-10T00:19:07;8.23;;;7.30;;
781;SDS011;374;52.568;13.402;2023-05-10T00:21:33;7.50;;;6.80;;
781;SDS011;374;52.568;13.402;2023-05-10T00:23:58;8.33;;;7.53;;
781;SDS011;374;52.568;13.402;2023-05-10T00:26:24;8.80;;;7.37;;
781;SDS011;374;52.568;13.402;2023-05-10T00:28:50;8.57;;;7.80;;
781;SDS011;374;52.568;13.402;2023-05-10T00:31:15;8.60;;;7.80;;
781;SDS011;374;52.568;13.402;2023-05-10T00:33:41;7.97;;;7.17;;
781;SDS011;374;52.568;13.402;2023-05-10T00:36:06;8.30;;;7.67;;
781;SDS011;374;52.568;13.402;2023-05-10T00:38:33;7.23;;;6.63;;
781;SDS011;374;52.568;13.402;2023-05-10T00:40:58;10.87;;;8.30;;
781;SDS011;374;52.568;13.402;2023-05-10T00:43:24;8.40;;;7.60;;
781;SDS011;374;52.568;13.402;2023-05-10T00:45:49;8.20;;;7.50;;
781;SDS011;374;52.568;13.402;2023-05-10T00:48:15;7.90;;;6.70;;
781;SDS011;374;52.568;13.402;2023-05-10T00:50:41;9.27;;;8.30;;
781;SDS011;374;52.568;13.402;2023-05-10T00:53:07;10.10;;;6.63;;
781;SDS011;374;52.568;13.402;2023-05-10T00:55:37;7.87;;;7.23;;
781;SDS011;374;52.568;13.402;2023-05-10T00:58:11;8.03;;;7.30;;
781;SDS011;374;52.568;13.402;2023-05-10T01:00:37;7.87;;;6.80;;
781;SDS011;374;52.568;13.402;2023-05-10T01:03:06;8.50;;;7.70;;
781;SDS011;374;52.568;13.402;2023-05-10T01:05:31;8.67;;;7.80;;
781;SDS011;374;52.568;13.402;2023-05-10T01:07:57;8.40;;;7.57;;
781;SDS011;374;52.568;13.402;2023-05-10T01:10:22;8.63;;;7.77;;
781;SDS011;374;52.568;13.402;2023-05-10T01:12:48;10.87;;;7.20;;
781;SDS011;374;52.568;13.402;2023-05-10T01:15:14;9.80;;;7.63;;
781;SDS011;374;52.568;13.402;2023-05-10T01:17:42;8.07;;;7.27;;
781;SDS011;374;52.568;13.402;2023-05-10T01:20:09;7.60;;;6.90;;
781;SDS011;374;52.568;13.402;2023-05-10T01:22:48;9.10;;;8.20;;
781;SDS011;374;52.568;13.402;2023-05-10T01:28:01;9.00;;;8.10;;
781;SDS011;374;52.568;13.402;2023-05-10T01:33:59;9.13;;;8.20;;
781;SDS011;374;52.568;13.402;2023-05-10T01:36:30;7.13;;;6.53;;
781;SDS011;374;52.568;13.402;2023-05-10T01:38:59;11.43;;;8.37;;
781;SDS011;374;52.568;13.402;2023-05-10T01:41:39;7.47;;;6.77;;
781;SDS011;374;52.568;13.402;2023-05-10T01:44:46;9.53;;;7.73;;
781;SDS011;374;52.568;13.402;2023-05-10T01:47:12;7.40;;;6.70;;
781;SDS011;374;52.568;13.402;2023-05-10T01:49:49;8.73;;;7.70;;
781;SDS011;374;52.568;13.402;2023-05-10T01:52:18;8.67;;;7.93;;
781;SDS011;374;52.568;13.402;2023-05-10T01:54:50;8.77;;;7.87;;
781;SDS011;374;52.568;13.402;2023-05-10T01:57:26;8.57;;;7.80;;
781;SDS011;374;52.568;13.402;2023-05-10T01:59:57;8.40;;;7.50;;
781;SDS011;374;52.568;13.402;2023-05-10T02:02:25;7.80;;;7.10;;
781;SDS011;374;52.568;13.402;2023-05-10T02:04:53;7.80;;;7.20;;
781;SDS011;374;52.568;13.402;2023-05-10T02:07:20;8.97;;;8.07;;
781;SDS011;374;52.568;13.402;2023-05-10T02:09:47;8.67;;;7.80;;
781;SDS011;374;52.568;13.402;2023-05-10T02:12:13;9.37;;;7.70;;
781;SDS011;374;52.568;13.402;2023-05-10T02:14:40;7.63;;;6.93;;
781;SDS011;374;52.568;13.402;2023-05-10T02:17:07;7.57;;;6.87;;
781;SDS011;374;52.568;13.402;2023-05-10T02:19:33;7.27;;;6.63;;
781;SDS011;374;52.568;13.402;2023-05-10T02:22:01;8.57;;;6.90;;
781;SDS011;374;52.568;13.402;2023-05-10T02:24:28;8.83;;;7.93;;
781;SDS011;374;52.568;13.402;2023-05-10T02:26:54;9.17;;;7.67;;
781;SDS011;374;52.568;13.402;2023-05-10T02:29:22;8.03;;;7.30;;
781;SDS011;374;52.568;13.402;2023-05-10T02:31:49;7.40;;;6.70;;
781;SDS011;374;52.568;13.402;2023-05-10T02:34:17;8.10;;;7.30;;
781;SDS011;374;52.568;13.402;2023-05-10T02:36:44;7.70;;;6.90;;
781;SDS011;374;52.568;13.402;2023-05-10T02:39:09;8.57;;;7.67;;
781;SDS011;374;52.568;13.402;2023-05-10T02:41:38;8.03;;;7.23;;
781;SDS011;374;52.568;13.402;2023-05-10T02:44:06;7.73;;;7.00;;
781;SDS011;374;52.568;13.402;2023-05-10T02:46:33;8.70;;;7.03;;
781;SDS011;374;52.568;13.402;2023-05-10T02:48:58;7.50;;;6.77;;
781;SDS011;374;52.568;13.402;2023-05-10T02:51:25;7.57;;;6.80;;
781;SDS011;374;52.568;13.402;2023-05-10T02:53:56;11.37;;;7.10;;
781;SDS011;374;52.568;13.402;2023-05-10T02:56:25;7.60;;;6.90;;
781;SDS011;374;52.568;13.402;2023-05-10T02:58:56;9.70;;;7.10;;
781;SDS011;374;52.568;13.402;2023-05-10T03:01:21;7.17;;;6.37;;
781;SDS011;374;52.568;13.402;2023-05-10T03:03:47;7.87;;;7.17;;
781;SDS011;374;52.568;13.402;2023-05-10T03:06:13;7.80;;;6.93;;
781;SDS011;374;52.568;13.402;2023-05-10T03:08:38;7.73;;;6.80;;
781;SDS011;374;52.568;13.402;2023-05-10T03:11:09;8.03;;;7.23;;
781;SDS011;374;52.568;13.402;2023-05-10T03:13:53;7.60;;;6.80;;
781;SDS011;374;52.568;13.402;2023-05-10T03:16:47;9.10;;;6.40;;
781;SDS011;374;52.568;13.402;2023-05-10T03:19:37;7.97;;;6.90;;
781;SDS011;374;52.568;13.402;2023-05-10T03:22:10;11.10;;;6.50;;
781;SDS011;374;52.568;13.402;2023-05-10T03:24:38;6.63;;;5.93;;
781;SDS011;374;52.568;13.402;2023-05-10T03:27:06;6.67;;;6.07;;
781;SDS011;374;52.568;13.402;2023-05-10T03:29:32;8.10;;;7.30;;
781;SDS011;374;52.568;13.402;2023-05-10T03:31:58;7.20;;;6.57;;
781;SDS011;374;52.568;13.402;2023-05-10T03:34:25;7.43;;;6.53;;
781;SDS011;374;52.568;13.402;2023-05-10T03:36:51;7.30;;;6.70;;
781;SDS011;374;52.568;13.402;2023-05-10T03:39:17;9.73;;;6.30;;
781;SDS011;374;52.568;13.402;2023-05-10T03:41:42;8.50;;;7.03;;
781;SDS011;374;52.568;13.402;2023-05-10T03:44:08;7.73;;;6.17;;
781;SDS011;374;52.568;13.402;2023-05-10T03:46:33;6.67;;;5.93;;
781;SDS011;374;52.568;13.402;2023-05-10T03:48:59;7.00;;;6.37;;
781;SDS011;374;52.568;13.402;2023-05-10T03:51:24;7.40;;;6.67;;
781;SDS011;374;52.568;13.402;2023-05-10T03:53:53;7.97;;;6.17;;
781;SDS011;374;52.568;13.402;2023-05-10T03:56:18;6.93;;;6.40;;
781;SDS011;374;52.568;13.402;2023-05-10T03:58:45;8.90;;;7.30;;
781;SDS011;374;52.568;13.402;2023-05-10T04:01:11;7.07;;;6.47;;
781;SDS011;374;52.568;13.402;2023-05-10T04:03:36;6.83;;;6.20;;
781;SDS011;374;52.568;13.402;2023-05-10T04:06:03;8.27;;;6.70;;
781;SDS011;374;52.568;13.402;2023-05-10T04:08:28;7.90;;;6.93;;
781;SDS011;374;52.568;13.402;2023-05-10T04:10:54;7.30;;;6.17;;
781;SDS011;374;52.568;13.402;2023-05-10T04:13:20;8.10;;;7.17;;
781;SDS011;374;52.568;13.402;2023-05-10T04:15:46;7.77;;;7.13;;
781;SDS011;374;52.568;13.402;2023-05-10T04:18:11;7.40;;;6.70;;
781;SDS011;374;52.568;13.402;2023-05-10T04:20:37;6.50;;;5.80;;
781;SDS011;374;52.568;13.402;2023-05-10T04:23:02;7.43;;;6.67;;
781;SDS011;374;52.568;13.402;2023-05-10T04:25:28;6.47;;;5.87;;
781;SDS011;374;52.568;13.402;2023-05-10T04:27:53;7.27;;;6.40;;
781;SDS011;374;52.568;13.402;2023-05-10T04:30:19;8.73;;;7.37;;
781;SDS011;374;52.568;13.402;2023-05-10T04:32:44;7.20;;;6.50;;
781;SDS011;374;52.568;13.402;2023-05-10T04:35:10;6.83;;;6.23;;
781;SDS011;374;52.568;13.402;2023-05-10T04:37:35;7.27;;;6.67;;
781;SDS011;374;52.568;13.402;2023-05-10T04:40:01;7.00;;;6.30;;
781;SDS011;374;52.568;13.402;2023-05-10T04:42:28;8.20;;;6.27;;
781;SDS011;374;52.568;13.402;2023-05-10T04:44:53;7.47;;;6.70;;
781;SDS011;374;52.568;13.402;2023-05-10T04:47:19;6.30;;;5.70;;
781;SDS011;374;52.568;13.402;2023-05-10T04:49:44;6.40;;;5.90;;
781;SDS011;374;52.568;13.402;2023-05-10T04:52:10;7.13;;;6.53;;
781;SDS011;374;52.568;13.402;2023-05-10T04:54:36;6.07;;;5.57;;
781;SDS011;374;52.568;13.402;2023-05-10T04:57:01;7.13;;;6.07;;
781;SDS011;374;52.568;13.402;2023-05-10T04:59:27;7.00;;;5.77;;
781;SDS011;374;52.568;13.402;2023-05-10T05:01:53;7.83;;;6.63;;
781;SDS011;374;52.568;13.402;2023-05-10T05:04:18;6.57;;;5.87;;
781;SDS011;374;52.568;13.402;2023-05-10T05:06:44;6.80;;;6.23;;
781;SDS011;374;52.568;13.402;2023-05-10T05:09:09;6.47;;;5.87;;
781;SDS011;374;52.568;13.402;2023-05-10T05:11:35;6.50;;;5.90;;
781;SDS011;374;52.568;13.402;2023-05-10T05:14:00;6.07;;;5.47;;
781;SDS011;374;52.568;13.402;2023-05-10T05:16:26;6.63;;;6.03;;
781;SDS011;374;52.568;13.402;2023-05-10T05:18:51;6.53;;;5.80;;
781;SDS011;374;52.568;13.402;2023-05-10T05:21:17;6.20;;;5.60;;
781;SDS011;374;52.568;13.402;2023-05-10T05:23:43;6.67;;;5.80;;
781;SDS011;374;52.568;13.402;2023-05-10T05:26:09;6.03;;;5.20;;
781;SDS011;374;52.568;13.402;2023-05-10T05:28:35;6.00;;;5.40;;
781;SDS011;374;52.568;13.402;2023-05-10T05:31:02;6.03;;;5.47;;
781;SDS011;374;52.568;13.402;2023-05-10T05:33:29;7.93;;;5.87;;
781;SDS011;374;52.568;13.402;2023-05-10T05:35:54;5.60;;;5.10;;
781;SDS011;374;52.568;13.402;2023-05-10T05:38:20;6.37;;;5.67;;
781;SDS011;374;52.568;13.402;2023-05-10T05:40:45;5.30;;;4.80;;
781;SDS011;374;52.568;13.402;2023-05-10T05:43:11;7.90;;;5.00;;
781;SDS011;374;52.568;13.402;2023-05-10T05:45:36;10.90;;;6.63;;
781;SDS011;374;52.568;13.402;2023-05-10T05:48:02;7.10;;;5.23;;
781;SDS011;374;52.568;13.402;2023-05-10T05:50:28;5.00;;;4.60;;
781;SDS011;374;52.568;13.402;2023-05-10T05:52:53;7.80;;;4.73;;
781;SDS011;374;52.568;13.402;2023-05-10T05:55:19;5.60;;;5.10;;
781;SDS011;374;52.568;13.402;2023-05-10T05:57:44;7.17;;;4.70;;
781;SDS011;374;52.568;13.402;2023-05-10T06:00:10;5.47;;;4.70;;
781;SDS011;374;52.568;13.402;2023-05-10T06:02:36;6.73;;;4.73;;
781;SDS011;374;52.568;13.402;2023-05-10T06:05:01;7.67;;;4.60;;
781;SDS011;374;52.568;13.402;2023-05-10T06:07:27;5.60;;;5.10;;
781;SDS011;374;52.568;13.402;2023-05-10T06:09:52;4.73;;;4.23;;
781;SDS011;374;52.568;13.402;2023-05-10T06:12:18;7.30;;;5.30;;
781;SDS011;374;52.568;13.402;2023-05-10T06:14:43;5.20;;;4.70;;
781;SDS011;374;52.568;13.402;2023-05-10T06:17:09;5.73;;;5.07;;
781;SDS011;374;52.568;13.402;2023-05-10T06:19:34;4.27;;;3.87;;
781;SDS011;374;52.568;13.402;2023-05-10T06:22:00;4.90;;;4.40;;
781;SDS011;374;52.568;13.402;2023-05-10T06:24:26;7.63;;;4.03;;
781;SDS011;374;52.568;13.402;2023-05-10T06:26:52;5.03;;;4.50;;
781;SDS011;374;52.568;13.402;2023-05-10T06:29:18;4.40;;;4.00;;
781;SDS011;374;52.568;13.402;2023-05-10T06:31:43;5.50;;;3.83;;
781;SDS011;374;52.568;13.402;2023-05-10T06:34:08;3.77;;;3.47;;
781;SDS011;374;52.568;13.402;2023-05-10T06:36:34;7.20;;;4.23;;
781;SDS011;374;52.568;13.402;2023-05-10T06:39:00;4.73;;;4.30;;
781;SDS011;374;52.568;13.402;2023-05-10T06:41:26;4.93;;;4.50;;
781;SDS011;374;52.568;13.402;2023-05-10T06:43:51;3.77;;;3.47;;
781;SDS011;374;52.568;13.402;2023-05-10T06:46:17;6.37;;;4.00;;
781;SDS011;374;52.568;13.402;2023-05-10T06:48:42;10.20;;;3.97;;
781;SDS011;374;52.568;13.402;2023-05-10T06:51:08;6.80;;;4.20;;
781;SDS011;374;52.568;13.402;2023-05-10T06:53:33;4.17;;;3.77;;
781;SDS011;374;52.568;13.402;2023-05-10T06:55:58;6.23;;;3.80;;
781;SDS011;374;52.568;13.402;2023-05-10T06:58:24;5.13;;;3.90;;
781;SDS011;374;52.568;13.402;2023-05-10T07:00:50;5.67;;;3.60;;
781;SDS011;374;52.568;13.402;2023-05-10T07:03:15;4.97;;;3.63;;
781;SDS011;374;52.568;13.402;2023-05-10T07:05:41;6.13;;;3.70;;
781;SDS011;374;52.568;13.402;2023-05-10T07:08:07;6.10;;;4.10;;
781;SDS011;374;52.568;13.402;2023-05-10T07:10:33;7.83;;;4.27;;
781;SDS011;374;52.568;13.402;2023-05-10T07:12:58;6.10;;;3.70;;
781;SDS011;374;52.568;13.402;2023-05-10T07:15:25;4.47;;;4.07;;
781;SDS011;374;52.568;13.402;2023-05-10T07:17:50;3.90;;;3.60;;
781;SDS011;374;52.568;13.402;2023-05-10T07:20:16;8.83;;;4.10;;
781;SDS011;374;52.568;13.402;2023-05-10T07:22:42;6.43;;;4.00;;
781;SDS011;374;52.568;13.402;2023-05-10T07:25:07;6.00;;;4.20;;
781;SDS011;374;52.568;13.402;2023-05-10T07:27:33;5.63;;;3.80;;
781;SDS011;374;52.568;13.402;2023-05-10T07:29:59;4.70;;;3.77;;
781;SDS011;374;52.568;13.402;2023-05-10T07:32:25;5.70;;;3.80;;
781;SDS011;374;52.568;13.402;2023-05-10T07:34:50;4.07;;;3.67;;
781;SDS011;374;52.568;13.402;2023-05-10T07:37:16;4.73;;;4.33;;
781;SDS011;374;52.568;13.402;2023-05-10T07:39:42;4.43;;;4.03;;
781;SDS011;374;52.568;13.402;2023-05-10T07:42:07;4.17;;;3.87;;
781;SDS011;374;52.568;13.402;2023-05-10T07:44:33;4.40;;;3.80;;
781;SDS011;374;52.568;13.402;2023-05-10T07:46:58;6.00;;;4.23;;
781;SDS011;374;52.568;13.402;2023-05-10T07:49:24;5.93;;;4.27;;
781;SDS011;374;52.568;13.402;2023-05-10T07:51:50;6.17;;;4.20;;
781;SDS011;374;52.568;13.402;2023-05-10T07:54:16;4.43;;;4.13;;
781;SDS011;374;52.568;13.402;2023-05-10T07:56:42;8.47;;;3.73;;
781;SDS011;374;52.568;13.402;2023-05-10T07:59:14;4.43;;;3.90;;
781;SDS011;374;52.568;13.402;2023-05-10T08:01:41;3.97;;;3.67;;
781;SDS011;374;52.568;13.402;2023-05-10T08:04:07;4.03;;;3.67;;
781;SDS011;374;52.568;13.402;2023-05-10T08:06:33;4.40;;;4.00;;
781;SDS011;374;52.568;13.402;2023-05-10T08:08:59;6.60;;;4.23;;
781;SDS011;374;52.568;13.402;2023-05-10T08:11:24;4.13;;;3.83;;
781;SDS011;374;52.568;13.402;2023-05-10T08:13:50;4.23;;;3.40;;
781;SDS011;374;52.568;13.402;2023-05-10T08:16:16;4.40;;;4.00;;
781;SDS011;374;52.568;13.402;2023-05-10T08:18:43;5.13;;;3.90;;
781;SDS011;374;52.568;13.402;2023-05-10T08:21:32;7.97;;;4.63;;
781;SDS011;374;52.568;13.402;2023-05-10T08:23:57;5.67;;;4.10;;
781;SDS011;374;52.568;13.402;2023-05-10T08:26:23;4.87;;;4.37;;
781;SDS011;374;52.568;13.402;2023-05-10T08:28:48;4.40;;;4.10;;
781;SDS011;374;52.568;13.402;2023-05-10T08:31:14;6.33;;;4.00;;
781;SDS011;374;52.568;13.402;2023-05-10T08:33:40;3.67;;;3.33;;
781;SDS011;374;52.568;13.402;2023-05-10T08:36:06;4.70;;;3.90;;
781;SDS011;374;52.568;13.402;2023-05-10T08:38:31;5.67;;;4.83;;
781;SDS011;374;52.568;13.402;2023-05-10T08:40:57;5.47;;;3.70;;
781;SDS011;374;52.568;13.402;2023-05-10T08:43:25;7.20;;;4.37;;
781;SDS011;374;52.568;13.402;2023-05-10T08:45:53;4.07;;;3.77;;
781;SDS011;374;52.568;13.402;2023-05-10T08:48:20;4.87;;;4.23;;
781;SDS011;374;52.568;13.402;2023-05-10T08:50:49;4.80;;;4.30;;
781;SDS011;374;52.568;13.402;2023-05-10T08:53:46;4.17;;;3.77;;
781;SDS011;374;52.568;13.402;2023-05-10T08:56:12;4.50;;;4.10;;
781;SDS011;374;52.568;13.402;2023-05-10T08:58:40;3.83;;;3.53;;
781;SDS011;374;52.568;13.402;2023-05-10T09:01:06;6.90;;;3.87;;
781;SDS011;374;52.568;13.402;2023-05-10T09:03:32;4.37;;;4.07;;
781;SDS011;374;52.568;13.402;2023-05-10T09:05:58;4.10;;;3.80;;
781;SDS011;374;52.568;13.402;2023-05-10T09:08:24;4.50;;;4.20;;
781;SDS011;374;52.568;13.402;2023-05-10T09:10:54;6.10;;;4.73;;
781;SDS011;374;52.568;13.402;2023-05-10T09:13:23;4.03;;;3.73;;
781;SDS011;374;52.568;13.402;2023-05-10T09:15:49;4.87;;;4.37;;
781;SDS011;374;52.568;13.402;2023-05-10T09:18:16;4.43;;;4.13;;
781;SDS011;374;52.568;13.402;2023-05-10T09:20:41;4.83;;;4.43;;
781;SDS011;374;52.568;13.402;2023-05-10T09:23:07;5.50;;;5.07;;
781;SDS011;374;52.568;13.402;2023-05-10T09:25:32;4.80;;;4.40;;
781;SDS011;374;52.568;13.402;2023-05-10T09:27:58;4.50;;;4.10;;
781;SDS011;374;52.568;13.402;2023-05-10T09:32:51;4.73;;;4.43;;
781;SDS011;374;52.568;13.402;2023-05-10T09:35:22;8.27;;;5.40;;
781;SDS011;374;52.568;13.402;2023-05-10T09:37:50;5.00;;;4.60;;
781;SDS011;374;52.568;13.402;2023-05-10T09:40:19;4.70;;;4.43;;
781;SDS011;374;52.568;13.402;2023-05-10T09:45:30;5.23;;;4.60;;
781;SDS011;374;52.568;13.402;2023-05-10T09:47:57;5.50;;;5.10;;
781;SDS011;374;52.568;13.402;2023-05-10T09:50:24;4.90;;;4.40;;
781;SDS011;374;52.568;13.402;2023-05-10T09:52:51;5.13;;;4.60;;
781;SDS011;374;52.568;13.402;2023-05-10T09:55:19;4.80;;;4.50;;
781;SDS011;374;52.568;13.402;2023-05-10T09:57:46;4.90;;;4.60;;
781;SDS011;374;52.568;13.402;2023-05-10T10:00:17;5.27;;;4.87;;
781;SDS011;374;52.568;13.402;2023-05-10T10:02:45;5.13;;;4.73;;
781;SDS011;374;52.568;13.402;2023-05-10T10:05:21;4.53;;;4.23;;
781;SDS011;374;52.568;13.402;2023-05-10T10:07:57;4.77;;;4.30;;
781;SDS011;374;52.568;13.402;2023-05-10T10:10:26;4.80;;;4.40;;
781;SDS011;374;52.568;13.402;2023-05-10T10:12:53;4.30;;;4.00;;
781;SDS011;374;52.568;13.402;2023-05-10T10:15:20;9.47;;;7.77;;
781;SDS011;374;52.568;13.402;2023-05-10T10:17:46;5.33;;;4.93;;
781;SDS011;374;52.568;13.402;2023-05-10T10:20:13;4.50;;;4.20;;
781;SDS011;374;52.568;13.402;2023-05-10T10:22:39;4.80;;;4.40;;
781;SDS011;374;52.568;13.402;2023-05-10T10:25:05;5.13;;;4.20;;
781;SDS011;374;52.568;13.402;2023-05-10T10:27:43;4.80;;;4.50;;
781;SDS011;374;52.568;13.402;2023-05-10T10:30:19;4.70;;;4.30;;
781;SDS011;374;52.568;13.402;2023-05-10T10:33:10;4.73;;;4.43;;
781;SDS011;374;52.568;13.402;2023-05-10T10:36:00;6.23;;;4.87;;
781;SDS011;374;52.568;13.402;2023-05-10T10:44:22;4.23;;;3.93;;
781;SDS011;374;52.568;13.402;2023-05-10T10:47:06;5.03;;;4.40;;
781;SDS011;374;52.568;13.402;2023-05-10T10:55:01;5.57;;;4.47;;
781;SDS011;374;52.568;13.402;2023-05-10T10:57:32;5.07;;;4.40;;
781;SDS011;374;52.568;13.402;2023-05-10T11:03:05;4.50;;;4.10;;
781;SDS011;374;52.568;13.402;2023-05-10T11:05:36;4.07;;;3.70;;
781;SDS011;374;52.568;13.402;2023-05-10T11:16:10;5.90;;;5.30;;
781;SDS011;374;52.568;13.402;2023-05-10T11:18:39;5.27;;;4.67;;
781;SDS011;374;52.568;13.402;2023-05-10T11:21:07;6.43;;;4.30;;
781;SDS011;374;52.568;13.402;2023-05-10T11:23:48;3.90;;;3.60;;
781;SDS011;374;52.568;13.402;2023-05-10T11:26:15;4.00;;;3.60;;
781;SDS011;374;52.568;13.402;2023-05-10T11:28:44;5.93;;;3.70;;
781;SDS011;374;52.568;13.402;2023-05-10T11:31:13;4.50;;;4.17;;
781;SDS011;374;52.568;13.402;2023-05-10T11:33:49;4.83;;;4.50;;
781;SDS011;374;52.568;13.402;2023-05-10T11:36:17;5.10;;;4.57;;
781;SDS011;374;52.568;13.402;2023-05-10T11:38:44;4.33;;;3.97;;
781;SDS011;374;52.568;13.402;2023-05-10T11:41:10;4.73;;;4.33;;
781;SDS011;374;52.568;13.402;2023-05-10T11:43:37;6.27;;;4.30;;
781;SDS011;374;52.568;13.402;2023-05-10T11:46:10;4.50;;;4.20;;
781;SDS011;374;52.568;13.402;2023-05-10T11:48:38;4.03;;;3.70;;
781;SDS011;374;52.568;13.402;2023-05-10T11:51:04;4.63;;;4.20;;
781;SDS011;374;52.568;13.402;2023-05-10T11:53:37;5.60;;;4.03;;
781;SDS011;374;52.568;13.402;2023-05-10T11:56:06;5.00;;;4.60;;
781;SDS011;374;52.568;13.402;2023-05-10T11:58:32;3.90;;;3.60;;
781;SDS011;374;52.568;13.402;2023-05-10T12:00:59;4.03;;;3.73;;
781;SDS011;374;52.568;13.402;2023-05-10T12:03:25;4.67;;;4.27;;
781;SDS011;374;52.568;13.402;2023-05-10T12:05:54;4.13;;;3.70;;
781;SDS011;374;52.568;13.402;2023-05-10T12:08:22;9.60;;;4.97;;
781;SDS011;374;52.568;13.402;2023-05-10T12:10:52;8.13;;;4.33;;
781;SDS011;374;52.568;13.402;2023-05-10T12:13:19;8.57;;;4.30;;
781;SDS011;374;52.568;13.402;2023-05-10T12:15:46;5.57;;;5.07;;
781;SDS011;374;52.568;13.402;2023-05-10T12:18:12;5.17;;;4.20;;
781;SDS011;374;52.568;13.402;2023-05-10T12:20:39;4.80;;;4.00;;
781;SDS011;374;52.568;13.402;2023-05-10T12:23:08;4.47;;;4.07;;
781;SDS011;374;52.568;13.402;2023-05-10T12:25:35;5.20;;;4.07;;
781;SDS011;374;52.568;13.402;2023-05-10T12:28:05;3.67;;;3.37;;
781;SDS011;374;52.568;13.402;2023-05-10T12:30:34;3.53;;;3.33;;
781;SDS011;374;52.568;13.402;2023-05-10T12:33:08;4.27;;;3.70;;
781;SDS011;374;52.568;13.402;2023-05-10T12:35:54;5.40;;;4.30;;
781;SDS011;374;52.568;13.402;2023-05-10T12:40:54;5.17;;;4.50;;
781;SDS011;374;52.568;13.402;2023-05-10T12:43:19;5.37;;;4.93;;
781;SDS011;374;52.568;13.402;2023-05-10T12:45:45;5.47;;;5.07;;
781;SDS011;374;52.568;13.402;2023-05-10T12:48:13;5.23;;;4.67;;
781;SDS011;374;52.568;13.402;2023-05-10T12:50:42;4.80;;;4.37;;
781;SDS011;374;52.568;13.402;2023-05-10T12:53:07;4.10;;;3.80;;
781;SDS011;374;52.568;13.402;2023-05-10T12:55:33;4.10;;;3.80;;
781;SDS011;374;52.568;13.402;2023-05-10T12:57:58;6.00;;;4.30;;
781;SDS011;374;52.568;13.402;2023-05-10T13:00:27;6.00;;;3.63;;
781;SDS011;374;52.568;13.402;2023-05-10T13:02:53;6.50;;;4.93;;
781;SDS011;374;52.568;13.402;2023-05-10T13:05:19;4.37;;;3.97;;
781;SDS011;374;52.568;13.402;2023-05-10T13:07:44;5.33;;;4.37;;
781;SDS011;374;52.568;13.402;2023-05-10T13:10:10;6.40;;;4.40;;
781;SDS011;374;52.568;13.402;2023-05-10T13:12:37;5.17;;;4.67;;
781;SDS011;374;52.568;13.402;2023-05-10T13:15:02;4.87;;;3.80;;
781;SDS011;374;52.568;13.402;2023-05-10T13:17:28;7.03;;;4.03;;
781;SDS011;374;52.568;13.402;2023-05-10T13:19:54;6.83;;;3.37;;
781;SDS011;374;52.568;13.402;2023-05-10T13:22:19;7.33;;;3.83;;
781;SDS011;374;52.568;13.402;2023-05-10T13:24:45;6.63;;;4.80;;
781;SDS011;374;52.568;13.402;2023-05-10T13:27:11;8.40;;;3.90;;
781;SDS011;374;52.568;13.402;2023-05-10T13:29:36;5.43;;;4.93;;
781;SDS011;374;52.568;13.402;2023-05-10T13:32:02;3.97;;;3.53;;
781;SDS011;374;52.568;13.402;2023-05-10T13:34:27;6.07;;;3.63;;
781;SDS011;374;52.568;13.402;2023-05-10T13:36:53;4.40;;;4.00;;
781;SDS011;374;52.568;13.402;2023-05-10T13:39:20;3.97;;;3.67;;
781;SDS011;374;52.568;13.402;2023-05-10T13:41:46;3.30;;;3.00;;
781;SDS011;374;52.568;13.402;2023-05-10T13:44:12;5.00;;;4.70;;
781;SDS011;374;52.568;13.402;2023-05-10T13:46:39;4.90;;;3.40;;
781;SDS011;374;52.568;13.402;2023-05-10T13:49:08;4.03;;;3.73;;
781;SDS011;374;52.568;13.402;2023-05-10T13:51:34;4.83;;;3.67;;
781;SDS011;374;52.568;13.402;2023-05-10T13:54:00;3.40;;;3.20;;
781;SDS011;374;52.568;13.402;2023-05-10T13:56:26;4.33;;;3.73;;
781;SDS011;374;52.568;13.402;2023-05-10T13:58:52;4.10;;;3.80;;
781;SDS011;374;52.568;13.402;2023-05-10T14:01:17;3.67;;;3.37;;
781;SDS011;374;52.568;13.402;2023-05-10T14:03:43;4.40;;;4.00;;
781;SDS011;374;52.568;13.402;2023-05-10T14:06:08;3.90;;;3.47;;
781;SDS011;374;52.568;13.402;2023-05-10T14:08:34;5.30;;;4.10;;
781;SDS011;374;52.568;13.402;2023-05-10T14:11:00;4.17;;;3.70;;
781;SDS011;374;52.568;13.402;2023-05-10T14:13:26;3.27;;;2.97;;
781;SDS011;374;52.568;13.402;2023-05-10T14:15:53;3.90;;;3.50;;
781;SDS011;374;52.568;13.402;2023-05-10T14:18:20;5.30;;;3.67;;
781;SDS011;374;52.568;13.402;2023-05-10T14:20:45;3.63;;;3.30;;
781;SDS011;374;52.568;13.402;2023-05-10T14:23:11;5.03;;;4.10;;
781;SDS011;374;52.568;13.402;2023-05-10T14:25:37;4.47;;;3.87;;
781;SDS011;374;52.568;13.402;2023-05-10T14:28:04;3.70;;;3.50;;
781;SDS011;374;52.568;13.402;2023-05-10T14:30:30;3.80;;;3.60;;
781;SDS011;374;52.568;13.402;2023-05-10T14:32:56;3.87;;;3.57;;
781;SDS011;374;52.568;13.402;2023-05-10T14:35:23;3.70;;;3.40;;
781;SDS011;374;52.568;13.402;2023-05-10T14:37:48;4.23;;;3.83;;
781;SDS011;374;52.568;13.402;2023-05-10T14:40:14;6.57;;;3.83;;
781;SDS011;374;52.568;13.402;2023-05-10T14:42:40;9.93;;;3.73;;
781;SDS011;374;52.568;13.402;2023-05-10T14:45:07;3.70;;;3.40;;
781;SDS011;374;52.568;13.402;2023-05-10T14:47:33;3.70;;;3.50;;
781;SDS011;374;52.568;13.402;2023-05-10T14:49:59;3.60;;;3.23;;
781;SDS011;374;52.568;13.402;2023-05-10T14:52:25;3.80;;;3.50;;
781;SDS011;374;52.568;13.402;2023-05-10T14:54:50;3.70;;;3.40;;
781;SDS011;374;52.568;13.402;2023-05-10T14:57:16;5.40;;;3.70;;
781;SDS011;374;52.568;13.402;2023-05-10T14:59:41;3.77;;;3.47;;
781;SDS011;374;52.568;13.402;2023-05-10T15:02:07;4.23;;;3.50;;
781;SDS011;374;52.568;13.402;2023-05-10T15:04:33;5.70;;;4.00;;
781;SDS011;374;52.568;13.402;2023-05-10T15:06:58;4.70;;;3.70;;
781;SDS011;374;52.568;13.402;2023-05-10T15:09:24;3.90;;;3.53;;
781;SDS011;374;52.568;13.402;2023-05-10T15:11:50;4.00;;;3.70;;
781;SDS011;374;52.568;13.402;2023-05-10T15:14:16;4.00;;;3.60;;
781;SDS011;374;52.568;13.402;2023-05-10T15:16:41;3.30;;;3.00;;
781;SDS011;374;52.568;13.402;2023-05-10T15:19:07;5.70;;;3.23;;
781;SDS011;374;52.568;13.402;2023-05-10T15:21:32;4.10;;;3.80;;
781;SDS011;374;52.568;13.402;2023-05-10T15:24:03;3.50;;;3.20;;
781;SDS011;374;52.568;13.402;2023-05-10T15:26:32;4.70;;;4.30;;
781;SDS011;374;52.568;13.402;2023-05-10T15:28:57;3.93;;;3.63;;
781;SDS011;374;52.568;13.402;2023-05-10T15:31:23;3.63;;;3.43;;
781;SDS011;374;52.568;13.402;2023-05-10T15:33:48;4.10;;;3.80;;
781;SDS011;374;52.568;13.402;2023-05-10T15:36:14;3.77;;;3.50;;
781;SDS011;374;52.568;13.402;2023-05-10T15:38:40;4.33;;;3.50;;
781;SDS011;374;52.568;13.402;2023-05-10T15:41:05;5.70;;;3.50;;
781;SDS011;374;52.568;13.402;2023-05-10T15:43:31;4.17;;;3.87;;
781;SDS011;374;52.568;13.402;2023-05-10T15:45:56;5.13;;;3.50;;
781;SDS011;374;52.568;13.402;2023-05-10T15:48:22;5.50;;;4.30;;
781;SDS011;374;52.568;13.402;2023-05-10T15:50:48;4.33;;;3.93;;
781;SDS011;374;52.568;13.402;2023-05-10T15:53:13;3.57;;;3.27;;
781;SDS011;374;52.568;13.402;2023-05-10T15:55:39;4.00;;;3.70;;
781;SDS011;374;52.568;13.402;2023-05-10T15:58:04;3.70;;;3.40;;
781;SDS011;374;52.568;13.402;2023-05-10T16:00:30;4.07;;;3.77;;
781;SDS011;374;52.568;13.402;2023-05-10T16:02:55;4.40;;;4.00;;
781;SDS011;374;52.568;13.402;2023-05-10T16:05:21;7.30;;;3.60;;
781;SDS011;374;52.568;13.402;2023-05-10T16:07:47;9.10;;;4.67;;